Flight Track Log - Related Links

Times and Time Zones

All times are in EDT time to prevent confusion due to time zone crossing. See the N830QS flight status page for this flight to view local times or setup timezone preferences in your user account.

Time Position Orientation Groundspeed Altitude Reporting Facility
EDT Latitude Longitude Course Direction KTS MPH feet Rate Location/Type
Wed 06:06:38 PM 38.6731 -104.6258 143° Southeast 257 296 11,400  Level Denver Center
Wed 06:07:53 PM 38.5844 -104.5364 142° Southeast 313 360 13,600 1,971 Climbing Denver Center
Wed 06:08:55 PM 38.5108 -104.4636 142° Southeast 342 394 15,900 2,129 Climbing Denver Center
Wed 06:09:57 PM 38.4153 -104.4914 193° South 333 383 18,000 1,984 Climbing Denver Center
Wed 06:10:00 PM 38.2990 -104.5292 288° West  Level FlightAware Approximate
Wed 06:10:59 PM 38.3506 -104.5617 220° Southwest 337 388 20,000  Level Denver Center
Wed 06:12:01 PM 38.3467 -104.6864 268° West 324 373 22,000 1,790 Climbing Denver Center
Wed 06:13:03 PM 38.3536 -104.7994 275° West 331 381 23,700 1,694 Climbing Denver Center
Wed 06:14:05 PM 38.3581 -104.9331 272° West 336 387 25,500 1,113 Climbing Denver Center
Wed 06:15:07 PM 38.3625 -105.0519 273° West 344 396 26,000 242 Climbing Denver Center
Wed 06:16:09 PM 38.3678 -105.2050 273° West 379 436 26,000 48 Level Denver Center
Wed 06:17:11 PM 38.3725 -105.3397 273° West 393 452 26,100 1,065 Climbing Denver Center
Wed 06:18:13 PM 38.3758 -105.4794 272° West 391 450 28,200 2,468 Climbing Denver Center
Wed 06:19:15 PM 38.3794 -105.5919 272° West 325 374 31,200 1,839 Climbing Denver Center
Wed 06:20:17 PM 38.3836 -105.7028 273° West 313 360 32,000 387 Climbing Denver Center
Wed 06:21:19 PM 38.3867 -105.8397 272° West 335 386 32,000  Level Denver Center
Wed 06:22:21 PM 38.3897 -105.9836 272° West 360 414 32,000  Level Denver Center
Wed 06:23:23 PM 38.3775 -106.1100 263° West 373 429 32,000  Level Denver Center
Wed 06:24:26 PM 38.3644 -106.2425 263° West 373 429 32,000  Level Denver Center
Wed 06:25:28 PM 38.3544 -106.3753 265° West 374 430 32,000  Level Denver Center
Wed 06:26:30 PM 38.3436 -106.5208 265° West 374 430 32,000  Level Denver Center
Wed 06:27:32 PM 38.3331 -106.6461 264° West 372 428 32,000  Level Denver Center
Wed 06:28:46 PM 38.3231 -106.7922 265° West 371 427 32,000  Level Denver Center
Wed 06:29:48 PM 38.3286 -106.9550 273° West 372 428 32,000 726 Level Denver Center
Wed 06:30:50 PM 38.3322 -107.0842 272° West 365 420 33,500 968 Climbing Denver Center
Wed 06:31:52 PM 38.3353 -107.1983 272° West 346 398 34,000 240 Climbing Denver Center
Wed 06:32:55 PM 38.3400 -107.3383 273° West 354 407 34,000  Level Denver Center
Wed 06:33:57 PM 38.3428 -107.4631 272° West 365 420 34,000  Level Denver Center
Wed 06:34:59 PM 38.3464 -107.6119 272° West 375 432 34,000  Level Denver Center
Wed 06:36:01 PM 38.3497 -107.7375 272° West 373 429 34,000  Level Denver Center
Wed 06:37:03 PM 38.3519 -107.8836 271° West 369 425 34,000 290 Level Denver Center
Wed 06:38:05 PM 38.3556 -108.0078 272° West 368 423 34,600 1,306 Climbing Denver Center
Wed 06:39:07 PM 38.3581 -108.1383 271° West 339 390 36,700 1,500 Climbing Denver Center
Wed 06:40:21 PM 38.3608 -108.2411 272° West 313 360 38,000 569 Climbing Denver Center
Wed 06:41:24 PM 38.3636 -108.3806 271° West 309 356 38,000  Level Denver Center
Wed 06:42:26 PM 38.3650 -108.4939 271° West 327 376 38,000  Level Denver Center
Wed 06:43:28 PM 38.3689 -108.6300 272° West 341 392 38,000  Level Denver Center
Wed 06:44:30 PM 38.3700 -108.7464 271° West 342 394 38,000  Level Denver Center
Wed 06:45:32 PM 38.3722 -108.8797 271° West 339 390 38,000  Level Denver Center
Wed 06:46:34 PM 38.3736 -108.9942 271° West 338 389 38,000  Level Denver Center
Wed 06:47:36 PM 38.3758 -109.1308 271° West 345 397 38,000  Level Denver Center
Wed 06:48:50 PM 38.3769 -109.2494 271° West 348 400 38,000  Level Denver Center
Wed 06:49:53 PM 38.3792 -109.4056 271° West 346 398 38,000  Level Denver Center
Wed 06:50:55 PM 38.3803 -109.5236 271° West 345 397 38,000  Level Denver Center
Wed 06:51:56 PM 38.3811 -109.6389 271° West 341 392 38,000  Level Denver Center
Wed 06:53:11 PM 38.3822 -109.7747 271° West 344 396 38,000  Level Denver Center
Wed 06:54:13 PM 38.3831 -109.9294 270° West 340 391 38,000  Level Denver Center
Wed 06:55:15 PM 38.3831 -110.0456 270° West 340 391 38,000  Level Denver Center
Wed 06:56:17 PM 38.3842 -110.1811 271° West 343 395 38,000  Level Denver Center
Wed 06:56:54 PM 38.3844 -110.2597 270° West 344 396 38,000  Level Salt Lake Center
Wed 06:57:56 PM 38.3858 -110.3778 271° West 347 399 38,000  Level Salt Lake Center
Wed 06:58:58 PM 38.3856 -110.5144 270° West 346 398 38,000  Level Salt Lake Center
Wed 07:00:00 PM 38.3856 -110.6328 270° West 347 399 38,000  Level Salt Lake Center
Wed 07:01:02 PM 38.3861 -110.7706 270° West 349 402 38,000  Level Salt Lake Center
Wed 07:02:04 PM 38.3858 -110.8889 270° West 349 402 38,000  Level Salt Lake Center
Wed 07:03:06 PM 38.3858 -111.0042 270° West 346 398 38,000  Level Salt Lake Center
Wed 07:04:08 PM 38.3853 -111.1514 270° West 349 402 38,000  Level Salt Lake Center
Wed 07:05:10 PM 38.3850 -111.2739 270° West 347 399 38,000  Level Salt Lake Center
Wed 07:06:12 PM 38.3836 -111.3978 269° West 350 403 38,000  Level Salt Lake Center
Wed 07:07:15 PM 38.3831 -111.5211 270° West 350 403 38,000  Level Salt Lake Center
Wed 07:08:17 PM 38.3822 -111.6450 270° West 352 405 38,000  Level Salt Lake Center
Wed 07:09:19 PM 38.3811 -111.7683 269° West 350 403 38,000  Level Salt Lake Center
Wed 07:10:21 PM 38.3792 -111.9178 269° West 354 407 38,000  Level Salt Lake Center
Wed 07:11:23 PM 38.3775 -112.0411 269° West 350 403 38,000  Level Salt Lake Center
Wed 07:12:25 PM 38.3767 -112.1647 270° West 351 404 38,000  Level Salt Lake Center
Wed 07:13:27 PM 38.3747 -112.2881 269° West 350 403 38,000  Level Salt Lake Center
Wed 07:14:29 PM 38.3722 -112.4117 269° West 351 404 38,000  Level Salt Lake Center
Wed 07:15:31 PM 38.3703 -112.5600 269° West 352 405 38,000  Level Salt Lake Center
Wed 07:16:33 PM 38.3678 -112.6844 269° West 353 406 38,000  Level Salt Lake Center
Wed 07:17:35 PM 38.3653 -112.8092 269° West 353 406 38,000  Level Salt Lake Center
Wed 07:18:37 PM 38.3625 -112.9339 268° West 354 407 38,000  Level Salt Lake Center
Wed 07:19:39 PM 38.3589 -113.0583 268° West 354 407 38,000  Level Salt Lake Center
Wed 07:20:41 PM 38.3461 -113.2081 264° West 356 410 38,000  Level Salt Lake Center
Wed 07:21:43 PM 38.3369 -113.3331 265° West 355 409 38,000  Level Salt Lake Center
Wed 07:22:45 PM 38.3281 -113.4567 265° West 354 407 38,000  Level Salt Lake Center
Wed 07:23:47 PM 38.3178 -113.5831 264° West 357 411 38,000  Level Salt Lake Center
Wed 07:24:50 PM 38.3078 -113.7075 264° West 357 411 38,000  Level Salt Lake Center
Wed 07:25:52 PM 38.2983 -113.8317 265° West 355 409 38,000  Level Salt Lake Center
Wed 07:26:54 PM 38.2861 -113.9822 264° West 357 411 38,000  Level Salt Lake Center
Wed 07:27:56 PM 38.2753 -114.1069 264° West 357 411 38,000  Level Salt Lake Center
Wed 07:28:58 PM 38.2664 -114.2333 265° West 358 412 38,000  Level Salt Lake Center
Wed 07:30:00 PM 38.2533 -114.3583 262° West 358 412 38,000  Level Salt Lake Center
Wed 07:31:02 PM 38.2447 -114.4839 265° West 359 413 38,000  Level Salt Lake Center
Wed 07:32:04 PM 38.2378 -114.6097 266° West 357 411 38,000  Level Salt Lake Center
Wed 07:33:06 PM 38.2278 -114.7636 265° West 364 419 38,000  Level Salt Lake Center
Wed 07:34:08 PM 38.2206 -114.8897 266° West 360 414 38,000  Level Salt Lake Center
Wed 07:35:10 PM 38.2139 -115.0161 266° West 360 414 38,000  Level Salt Lake Center
Wed 07:36:12 PM 38.2042 -115.1428 264° West 361 415 38,000  Level Salt Lake Center
Wed 07:37:14 PM 38.1956 -115.2689 265° West 360 414 38,000  Level Salt Lake Center
Wed 07:38:16 PM 38.1856 -115.4153 265° West 362 417 38,000  Level Salt Lake Center
Wed 07:39:18 PM 38.1775 -115.5419 265° West 361 415 38,000  Level Salt Lake Center
Wed 07:40:20 PM 38.1689 -115.6689 265° West 362 417 38,000  Level Salt Lake Center
Wed 07:41:22 PM 38.1603 -115.7961 265° West 362 417 38,000  Level Salt Lake Center
Wed 07:42:24 PM 38.1508 -115.9231 265° West 362 417 38,000  Level Salt Lake Center
Wed 07:43:26 PM 38.1394 -116.0767 265° West 364 419 38,000  Level Salt Lake Center
Wed 07:44:29 PM 38.1303 -116.2042 265° West 363 418 38,000  Level Salt Lake Center
Wed 07:45:31 PM 38.1208 -116.3319 265° West 363 418 38,000  Level Salt Lake Center
Wed 07:46:33 PM 38.1106 -116.4611 264° West 366 421 38,000  Level Salt Lake Center
Wed 07:47:35 PM 38.1011 -116.5897 265° West 366 421 38,000  Level Salt Lake Center
Wed 07:48:37 PM 38.0908 -116.7189 264° West 367 422 38,000  Level Salt Lake Center
Wed 07:49:39 PM 38.0783 -116.8742 264° West 368 423 38,000  Level Salt Lake Center
Wed 07:50:41 PM 38.0669 -117.0017 264° West 364 419 38,000  Level Salt Lake Center
Wed 07:51:49 PM 38.0481 -117.1308 260° West 372 428 38,000  Level Oakland Center
Wed 07:52:51 PM 38.0069 -117.2553 247° West 372 428 38,000  Level Oakland Center
Wed 07:53:52 PM 37.9658 -117.3758 247° West 368 423 38,000  Level Oakland Center
Wed 07:54:54 PM 37.9250 -117.4944 246° West 366 421 38,000 -629 Level Oakland Center
Wed 07:55:56 PM 37.8753 -117.6378 246° West 369 425 36,700 -1,659 Descending Oakland Center
Wed 07:56:57 PM 37.8317 -117.7614 246° West 378 435 34,600 -1,317 Descending Oakland Center
Wed 07:57:59 PM 37.7864 -117.8886 246° West 392 451 34,000 -290 Descending Oakland Center
Wed 07:59:01 PM 37.7417 -118.0175 246° West 399 459 34,000  Level Oakland Center
Wed 08:00:02 PM 37.6958 -118.1467 246° West 402 463 34,000  Level Oakland Center
Wed 08:01:04 PM 37.6492 -118.2747 245° Southwest 401 461 34,000  Level Oakland Center
Wed 08:02:05 PM 37.6042 -118.4011 246° West 398 458 34,000  Level Oakland Center
Wed 08:03:07 PM 37.5583 -118.5272 245° Southwest 396 456 34,000  Level Oakland Center
Wed 08:04:08 PM 37.5128 -118.6525 245° Southwest 394 453 34,000  Level Oakland Center
Wed 08:05:10 PM 37.4581 -118.8028 245° Southwest 394 453 34,000  Level Oakland Center
Wed 08:06:11 PM 37.4172 -118.9156 246° West 393 452 34,000 -439 Level Oakland Center
Wed 08:07:13 PM 37.3722 -119.0400 246° West 393 452 33,100 -1,171 Descending Oakland Center
Wed 08:08:14 PM 37.3256 -119.1669 245° Southwest 399 459 31,600 -1,610 Descending Oakland Center
Wed 08:09:16 PM 37.2689 -119.3161 245° Southwest 397 457 29,800 -1,597 Descending Oakland Center
Wed 08:10:18 PM 37.2239 -119.4394 245° Southwest 392 451 28,300 -1,463 Descending Oakland Center
Wed 08:11:19 PM 37.1800 -119.5608 246° West 387 445 26,800 -1,475 Descending Oakland Center
Wed 08:12:20 PM 37.1356 -119.6769 244° Southwest 375 432 25,300 -1,463 Descending Oakland Center
Wed 08:13:22 PM 37.0925 -119.7917 245° Southwest 367 422 23,800 -1,452 Descending Oakland Center
Wed 08:14:24 PM 37.0508 -119.9033 245° Southwest 357 411 22,300 -1,463 Descending Oakland Center
Wed 08:15:25 PM 37.0086 -120.0122 244° Southwest 350 403 20,800 -1,463 Descending Oakland Center
Wed 08:16:27 PM 36.9686 -120.1197 245° Southwest 346 398 19,300 -1,512 Descending Oakland Center
Wed 08:17:28 PM 36.9253 -120.2319 244° Southwest 349 402 17,700 -1,659 Descending Oakland Center
Wed 08:18:30 PM 36.8769 -120.3569 244° Southwest 330 380 15,900 -1,610 Descending Oakland Center
Wed 08:19:31 PM 36.8369 -120.4614 244° Southwest 330 380 14,400 -1,024 Descending Oakland Center
Wed 08:20:33 PM 36.8006 -120.5564 244° Southwest 318 366 13,800 -293 Descending Oakland Center
Wed 08:21:34 PM 36.7617 -120.6567 244° Southwest 324 373 13,800 -98 Level Oakland Center
Wed 08:22:36 PM 36.7228 -120.7594 245° Southwest 329 379 13,600 -878 Descending Oakland Center
Wed 08:23:37 PM 36.6917 -120.8589 249° West 314 361 12,000 -1,707 Descending Oakland Center
Wed 08:24:39 PM 36.6533 -120.9739 247° West 302 348 10,100 -1,073 Descending Oakland Center
Wed 08:25:40 PM 36.6225 -121.0686 248° West 297 342 9,800 -634 Descending Oakland Center
Wed 08:26:42 PM 36.5939 -121.1564 248° West 286 329 8,800 -976 Descending Oakland Center
Wed 08:27:43 PM 36.5650 -121.2417 247° West 277 319 7,800 -976 Descending Oakland Center
Wed 08:28:45 PM 36.5375 -121.3267 248° West 273 314 6,800 -927 Descending Oakland Center
Wed 08:29:46 PM 36.5103 -121.4106 248° West 269 310 5,900 -390 Descending Oakland Center
Wed 08:30:48 PM 36.4847 -121.4839 247° West 258 297 6,000 -146 Climbing Oakland Center
Wed 08:31:49 PM 36.4839 -121.5428 269° West 229 264 5,600 -732 Descending Oakland Center
Wed 08:32:51 PM 36.5097 -121.6228 292° West 213 245 4,500 -927 Descending Oakland Center
Wed 08:33:52 PM 36.5244 -121.6725 290° West 182 209 3,700 -829 Descending Oakland Center
Wed 08:34:54 PM 36.5394 -121.7125 295° West 146 168 2,800 -537 Descending Oakland Center
Wed 08:35:55 PM 36.5531 -121.7503 294° West 142 163 2,600 -706 Descending Oakland Center
Wed 08:37:10 PM 36.5667 -121.8000 289° West 109 125 1,200 -933 Descending Northern Cal TRACON
Wed 08:38:10 PM 36.5833 -121.8333 302° West 109 125 500 -700 Descending Northern Cal TRACON

Login

Don't have an account? Register now (free) for customized features, flight alerts, and more!